Time;durP1;ratioP1;P1;durP2;ratioP2;P2;SDS_P1;SDS_P2;PMS_P1;PMS_P2;Temp;Humidity;BMP_temperature;BMP_pressure;BME280_temperature;BME280_humidity;BME280_pressure;Samples;Min_cycle;Max_cycle;Signal;HPM_P1;HPM_P2
2023/08/06 00:08:19;;;;;;;110.05;105.35;;;;;;;-141.02;100.00;107971.50;5092818;28;20254;-65
2023/08/06 00:10:49;;;;;;;108.95;104.30;;;;;;;-141.02;100.00;107971.50;5092778;28;20198;-65
2023/08/06 00:13:58;;;;;;;118.55;113.47;;;;;;;-141.02;100.00;107971.50;5092727;28;20193;-66
2023/08/06 00:16:51;;;;;;;130.88;125.28;;;;;;;-141.02;100.00;107971.50;5120265;27;20223;-65
2023/08/06 00:19:18;;;;;;;116.35;111.40;;;;;;;-141.02;100.00;107971.50;5133509;27;20235;-66
2023/08/06 00:21:45;;;;;;;109.63;104.93;;;;;;;-141.02;100.00;107971.50;5133814;27;20277;-64
2023/08/06 00:34:28;;;;;;;93.13;89.13;;;;;;;-141.02;100.00;107971.50;5133443;27;20208;-63
2023/08/06 00:36:55;;;;;;;85.10;81.40;;;;;;;-141.02;100.00;107971.50;5133523;27;20228;-63
2023/08/06 00:39:32;;;;;;;89.07;85.18;;;;;;;-141.02;100.00;107971.50;5132975;27;20213;-64
2023/08/06 00:41:59;;;;;;;96.60;92.43;;;;;;;-141.02;100.00;107971.50;5133145;27;20669;-64
2023/08/06 00:44:26;;;;;;;119.18;114.07;;;;;;;-141.02;100.00;107971.50;5133057;27;20255;-64
2023/08/06 00:46:53;;;;;;;124.97;119.65;;;;;;;-141.02;100.00;107971.50;5133060;27;20196;-63
2023/08/06 00:49:20;;;;;;;142.15;136.05;;;;;;;-141.02;100.00;107971.50;5133493;27;20604;-65
2023/08/06 00:51:49;;;;;;;145.50;139.27;;;;;;;-141.02;100.00;107971.50;5133407;27;20269;-65
2023/08/06 00:55:00;;;;;;;149.35;142.98;;;;;;;-141.02;100.00;107971.50;5132956;27;20696;-65
2023/08/06 00:57:27;;;;;;;137.63;131.75;;;;;;;-141.02;100.00;107971.50;5133310;27;20242;-66
2023/08/06 00:59:55;;;;;;;133.20;127.50;;;;;;;-141.02;100.00;107971.50;5133277;27;20299;-65
2023/08/06 01:02:24;;;;;;;127.85;122.45;;;;;;;-141.02;100.00;107971.50;5133180;27;20223;-64
2023/08/06 01:04:51;;;;;;;124.07;118.82;;;;;;;-141.02;100.00;107971.50;5133210;27;20288;-64
2023/08/06 01:08:04;;;;;;;100.55;96.25;;;;;;;-141.02;100.00;107971.50;5132858;28;20189;-64
2023/08/06 01:10:47;;;;;;;85.00;81.30;;;;;;;-141.02;100.00;107971.50;5132903;27;20192;-64
2023/08/06 01:16:36;;;;;;;73.07;69.88;;;;;;;-141.02;100.00;107971.50;5130738;28;20223;-63
2023/08/06 01:19:03;;;;;;;77.45;74.07;;;;;;;-141.02;100.00;107971.50;5132760;28;20624;-65
2023/08/06 01:21:32;;;;;;;87.60;83.80;;;;;;;-141.02;100.00;107971.50;5132714;28;20189;-66
2023/08/06 01:23:59;;;;;;;90.03;86.13;;;;;;;-141.02;100.00;107971.50;5133088;27;20188;-66
2023/08/06 01:26:34;;;;;;;84.03;80.38;;;;;;;-141.02;100.00;107971.50;5132960;28;20193;-66
2023/08/06 01:29:09;;;;;;;84.97;81.28;;;;;;;-141.02;100.00;107971.50;5132724;27;20195;-66
2023/08/06 01:31:38;;;;;;;100.55;96.25;;;;;;;-141.02;100.00;107971.50;5132964;28;20329;-64
2023/08/06 01:34:32;;;;;;;107.75;103.15;;;;;;;-141.02;100.00;107971.50;5132955;28;20192;-64
2023/08/06 01:37:04;;;;;;;115.10;110.20;;;;;;;-141.02;100.00;107971.50;5132996;27;20189;-62
2023/08/06 01:39:34;;;;;;;107.10;102.50;;;;;;;-141.02;100.00;107971.50;5132604;27;20188;-66
2023/08/06 01:42:01;;;;;;;110.93;106.15;;;;;;;-141.02;100.00;107971.50;5132551;28;20733;-66
2023/08/06 01:44:29;;;;;;;99.28;94.97;;;;;;;-141.02;100.00;107971.50;5132794;27;20311;-63
2023/08/06 01:46:56;;;;;;;93.38;89.35;;;;;;;-141.02;100.00;107971.50;5132448;28;20197;-63
2023/08/06 01:49:23;;;;;;;108.20;103.53;;;;;;;-141.02;100.00;107971.50;5132887;27;20197;-65
2023/08/06 01:55:13;;;;;;;113.70;108.80;;;;;;;-141.02;100.00;107971.50;5136346;27;20260;-66
2023/08/06 02:01:02;;;;;;;110.72;106.03;;;;;;;-141.02;100.00;107971.50;5136340;27;20183;-64
2023/08/06 02:04:12;;;;;;;106.65;102.07;;;;;;;-141.02;100.00;107971.50;5136146;27;20196;-65
2023/08/06 02:06:40;;;;;;;99.65;95.35;;;;;;;-141.02;100.00;107971.50;5136119;27;20231;-62
2023/08/06 02:09:07;;;;;;;108.93;104.25;;;;;;;-141.02;100.00;107971.50;5136050;27;20673;-66
2023/08/06 02:12:08;;;;;;;99.20;94.90;;;;;;;-141.02;100.00;107971.50;5136325;27;20196;-63
2023/08/06 02:14:35;;;;;;;103.35;98.85;;;;;;;-141.02;100.00;107971.50;5136253;27;20189;-63
2023/08/06 02:17:02;;;;;;;111.03;106.25;;;;;;;-141.02;100.00;107971.50;5135768;27;20271;-65
2023/08/06 02:19:29;;;;;;;132.63;126.90;;;;;;;-141.02;100.00;107971.50;5136196;27;20566;-65
2023/08/06 02:21:56;;;;;;;154.27;147.63;;;;;;;-141.02;100.00;107971.50;5135856;27;20251;-65
2023/08/06 02:24:39;;;;;;;177.05;169.35;;;;;;;-141.02;100.00;107971.50;5135979;27;20306;-62
2023/08/06 02:27:08;;;;;;;211.77;202.43;;;;;;;-141.02;100.00;107971.50;5134311;27;20192;-66
2023/08/06 02:29:51;;;;;;;209.25;200.02;;;;;;;-141.02;100.00;107971.50;5135843;27;20219;-64
2023/08/06 02:32:19;;;;;;;207.75;198.65;;;;;;;-141.02;100.00;107971.50;5135873;27;20196;-62
2023/08/06 02:34:52;;;;;;;195.02;186.52;;;;;;;-141.02;100.00;107971.50;5135541;27;20208;-61
2023/08/06 02:37:19;;;;;;;189.80;181.50;;;;;;;-141.02;100.00;107971.50;5135826;27;20253;-67
2023/08/06 02:39:46;;;;;;;200.98;192.15;;;;;;;-141.02;100.00;107971.50;5135438;27;20214;-65
2023/08/06 02:42:36;;;;;;;182.20;174.32;;;;;;;-141.02;100.00;107971.50;5135428;27;20196;-65
2023/08/06 02:45:12;;;;;;;173.70;166.15;;;;;;;-141.02;100.00;107971.50;5135264;27;20247;-66
2023/08/06 02:47:42;;;;;;;166.30;159.13;;;;;;;-141.02;100.00;107971.50;5135373;27;20188;-66
2023/08/06 02:50:10;;;;;;;148.60;142.23;;;;;;;-141.02;100.00;107971.50;5135225;27;20196;-62
2023/08/06 02:52:38;;;;;;;153.23;146.68;;;;;;;-141.02;100.00;107971.50;5135616;27;20197;-64
2023/08/06 02:55:06;;;;;;;149.73;143.32;;;;;;;-141.02;100.00;107971.50;5135090;27;20649;-67
2023/08/06 02:57:34;;;;;;;142.18;136.07;;;;;;;-141.02;100.00;107971.50;5135183;27;20287;-67
2023/08/06 03:00:02;;;;;;;109.28;104.57;;;;;;;-141.02;100.00;107971.50;5135324;27;20287;-66
2023/08/06 03:06:06;;;;;;;52.88;50.47;;;;;;;-141.02;100.00;107971.50;5135076;27;20203;-66
2023/08/06 03:08:32;;;;;;;54.40;52.00;;;;;;;-141.02;100.00;107971.50;5135291;27;20192;-67
2023/08/06 03:11:01;;;;;;;59.97;57.28;;;;;;;-141.02;100.00;107971.50;5134906;27;20188;-63
2023/08/06 03:13:32;;;;;;;64.93;62.03;;;;;;;-141.02;100.00;107971.50;5134750;27;20227;-66
2023/08/06 03:16:01;;;;;;;77.82;74.35;;;;;;;-141.02;100.00;107971.50;5134571;27;20232;-67
2023/08/06 03:18:28;;;;;;;71.47;68.25;;;;;;;-141.02;100.00;107971.50;5134682;27;20239;-64
2023/08/06 03:20:55;;;;;;;72.35;69.07;;;;;;;-141.02;100.00;107971.50;5134681;27;20235;-66
2023/08/06 03:23:22;;;;;;;81.68;78.07;;;;;;;-141.02;100.00;107971.50;5134909;27;20231;-67
2023/08/06 03:25:49;;;;;;;111.10;106.35;;;;;;;-141.02;100.00;107971.50;5134943;27;20570;-65
2023/08/06 03:28:16;;;;;;;126.70;121.28;;;;;;;-141.02;100.00;107971.50;5134843;27;20227;-66
2023/08/06 03:31:36;;;;;;;124.55;119.22;;;;;;;-141.02;100.00;107971.50;5134427;27;20657;-66
2023/08/06 03:34:58;;;;;;;127.85;122.38;;;;;;;-141.02;100.00;107971.50;5134413;27;20228;-66
2023/08/06 03:41:29;;;;;;;156.52;149.77;;;;;;;-141.02;100.00;107971.50;5134697;27;20188;-65
2023/08/06 03:44:34;;;;;;;149.70;143.30;;;;;;;-141.02;100.00;107971.50;5135375;27;20192;-66
2023/08/06 03:47:28;;;;;;;138.40;132.45;;;;;;;-141.02;100.00;107971.50;5134106;27;20266;-66
2023/08/06 03:50:39;;;;;;;128.05;122.55;;;;;;;-141.02;100.00;107971.50;5134113;27;20197;-66
2023/08/06 03:56:27;;;;;;;121.90;116.68;;;;;;;-141.02;100.00;107971.50;5134110;27;20203;-67
2023/08/06 03:58:54;;;;;;;110.35;105.57;;;;;;;-141.02;100.00;107971.50;5134289;27;20230;-67
2023/08/06 04:01:21;;;;;;;107.05;102.45;;;;;;;-141.02;100.00;107971.50;5134155;27;20231;-66
2023/08/06 04:04:39;;;;;;;107.00;102.40;;;;;;;-141.02;100.00;107971.50;5134186;27;20200;-66
2023/08/06 04:10:30;;;;;;;92.30;88.30;;;;;;;-141.02;100.00;107971.50;5133857;27;20179;-66
2023/08/06 04:16:19;;;;;;;80.47;76.97;;;;;;;-141.02;100.00;107971.50;5128375;27;20227;-66
2023/08/06 04:19:36;;;;;;;75.68;72.35;;;;;;;-141.02;100.00;107971.50;5133582;27;20620;-66
2023/08/06 04:22:30;;;;;;;60.85;58.15;;;;;;;-141.02;100.00;107971.50;5133901;27;20200;-66
2023/08/06 04:24:57;;;;;;;56.20;53.70;;;;;;;-141.02;100.00;107971.50;5133391;27;20228;-65
2023/08/06 04:27:26;;;;;;;51.85;49.55;;;;;;;-141.02;100.00;107971.50;5133419;27;20199;-66
2023/08/06 04:29:53;;;;;;;47.92;45.83;;;;;;;-141.02;100.00;107971.50;5133761;27;20255;-66
2023/08/06 04:32:20;;;;;;;42.22;40.42;;;;;;;-141.02;100.00;107971.50;5133415;27;20207;-66
2023/08/06 04:34:47;;;;;;;46.45;44.45;;;;;;;-141.02;100.00;107971.50;5133597;27;20227;-65
2023/08/06 04:37:15;;;;;;;47.83;45.83;;;;;;;-141.02;100.00;107971.50;5133548;27;20197;-67
2023/08/06 04:39:41;;;;;;;45.20;43.30;;;;;;;-141.02;100.00;107971.50;5133566;27;20201;-66
2023/08/06 04:42:28;;;;;;;38.60;37.00;;;;;;;-141.02;100.00;107971.50;5133596;27;20637;-64
2023/08/06 04:45:02;;;;;;;31.77;30.50;;;;;;;-141.02;100.00;107971.50;5133110;27;20682;-65
2023/08/06 04:47:29;;;;;;;28.65;27.55;;;;;;;-141.02;100.00;107971.50;5133496;27;20282;-66
2023/08/06 04:54:00;;;;;;;29.27;28.17;;;;;;;-141.02;100.00;107971.50;5133125;27;20214;-65
2023/08/06 04:56:27;;;;;;;31.65;30.40;;;;;;;-141.02;100.00;107971.50;5133135;27;20561;-66
2023/08/06 04:59:03;;;;;;;31.17;29.98;;;;;;;-141.02;100.00;107971.50;5133043;27;20288;-65
2023/08/06 05:01:30;;;;;;;32.85;31.55;;;;;;;-141.02;100.00;107971.50;5132976;27;20665;-66
2023/08/06 05:03:57;;;;;;;30.05;28.85;;;;;;;-141.02;100.00;107971.50;5133230;28;20223;-66
2023/08/06 05:06:24;;;;;;;29.90;28.70;;;;;;;-141.02;100.00;107971.50;5133136;28;20260;-66
2023/08/06 05:08:51;;;;;;;20.77;20.08;;;;;;;-141.02;100.00;107971.50;5133278;27;20222;-66
2023/08/06 05:11:18;;;;;;;19.60;18.90;;;;;;;-141.02;100.00;107971.50;5132921;28;20287;-62
2023/08/06 05:13:45;;;;;;;17.38;16.85;;;;;;;-141.02;100.00;107971.50;5132936;28;20708;-65
2023/08/06 05:16:13;;;;;;;17.92;17.33;;;;;;;-141.02;100.00;107971.50;5132836;28;20315;-65
2023/08/06 05:18:41;;;;;;;19.10;18.50;;;;;;;-141.02;100.00;107971.50;5132889;28;20288;-66
2023/08/06 05:21:08;;;;;;;18.50;17.90;;;;;;;-141.02;100.00;107971.50;5133181;28;20192;-66
2023/08/06 05:23:35;;;;;;;16.70;16.20;;;;;;;-141.02;100.00;107971.50;5133057;28;20204;-62
2023/08/06 05:26:02;;;;;;;14.25;13.85;;;;;;;-141.02;100.00;107971.50;5134992;27;20756;-65
2023/08/06 05:28:29;;;;;;;11.70;11.40;;;;;;;-141.02;100.00;107971.50;5136850;27;20283;-62
2023/08/06 05:30:56;;;;;;;13.60;13.20;;;;;;;-141.02;100.00;107971.50;5137230;27;20269;-59
2023/08/06 05:33:25;;;;;;;11.18;10.88;;;;;;;-141.02;100.00;107971.50;5137133;27;20224;-60
2023/08/06 05:35:52;;;;;;;9.05;8.85;;;;;;;-141.02;100.00;107971.50;5137061;27;20622;-63
2023/08/06 05:38:19;;;;;;;8.10;7.90;;;;;;;-141.02;100.00;107971.50;5137087;27;20246;-66
2023/08/06 05:40:46;;;;;;;6.78;6.57;;;;;;;-141.02;100.00;107971.50;5136992;27;20204;-62
2023/08/06 05:43:12;;;;;;;8.60;8.40;;;;;;;-141.02;100.00;107971.50;5137041;27;20192;-66
2023/08/06 05:45:39;;;;;;;8.65;8.45;;;;;;;-141.02;100.00;107971.50;5136475;27;20262;-66
2023/08/06 05:48:06;;;;;;;7.80;7.60;;;;;;;-141.02;100.00;107971.50;5136787;27;20699;-64
2023/08/06 05:50:35;;;;;;;9.10;8.90;;;;;;;-141.02;100.00;107971.50;5136934;27;20203;-66
2023/08/06 05:53:02;;;;;;;9.25;9.05;;;;;;;-141.02;100.00;107971.50;5136759;27;20189;-65
2023/08/06 05:55:29;;;;;;;10.05;9.75;;;;;;;-141.02;100.00;107971.50;5136393;27;20554;-61
2023/08/06 05:57:56;;;;;;;12.65;12.25;;;;;;;-141.02;100.00;107971.50;5136536;27;20271;-65
2023/08/06 06:00:23;;;;;;;14.60;14.10;;;;;;;-141.02;100.00;107971.50;5136352;27;20693;-64
2023/08/06 06:02:50;;;;;;;14.25;13.75;;;;;;;-141.02;100.00;107971.50;5136343;27;20201;-66
2023/08/06 06:05:17;;;;;;;14.48;13.98;;;;;;;-141.02;100.00;107971.50;5136150;27;20242;-62
2023/08/06 06:07:45;;;;;;;15.70;15.10;;;;;;;-141.02;100.00;107971.50;5136368;27;20315;-66
2023/08/06 06:10:12;;;;;;;17.10;16.40;;;;;;;-141.02;100.00;107971.50;5136045;27;20725;-66
2023/08/06 06:12:39;;;;;;;18.42;17.58;;;;;;;-141.02;100.00;107971.50;5136451;27;20192;-61
2023/08/06 06:15:07;;;;;;;17.95;17.25;;;;;;;-141.02;100.00;107969.53;5135975;27;20280;-67
2023/08/06 06:17:34;;;;;;;18.05;17.25;;;;;;;-141.02;100.00;107969.53;5135812;27;20318;-59
2023/08/06 06:20:04;;;;;;;16.15;15.55;;;;;;;-141.02;100.00;107969.53;5136220;27;20272;-67
2023/08/06 06:22:31;;;;;;;16.00;15.40;;;;;;;-141.02;100.00;107971.50;5136148;27;20262;-66
2023/08/06 06:24:59;;;;;;;14.50;14.00;;;;;;;-141.02;100.00;107971.50;5136206;27;20199;-60
2023/08/06 06:27:26;;;;;;;15.27;14.77;;;;;;;-141.02;100.00;106967.91;5135742;27;20242;-59
2023/08/06 06:29:54;;;;;;;15.80;15.20;;;;;;;-141.02;100.00;105966.59;5135854;27;20747;-67
2023/08/06 06:32:22;;;;;;;16.75;16.15;;;;;;;-141.02;100.00;105466.03;5136076;27;20323;-68
2023/08/06 06:34:49;;;;;;;15.93;15.32;;;;;;;-141.02;100.00;103714.66;5135990;27;20184;-67
2023/08/06 06:37:16;;;;;;;14.90;14.40;;;;;;;-141.02;100.00;102964.34;5135090;27;20203;-67
2023/08/06 06:39:44;;;;;;;14.23;13.73;;;;;;;-141.02;100.00;102214.16;5135443;27;20197;-66
2023/08/06 06:42:12;;;;;;;14.57;13.98;;;;;;;-141.02;100.00;97716.59;5135565;27;20200;-66
2023/08/06 06:44:39;;;;;;;13.45;12.95;;;;;;;-141.02;100.00;99215.16;5135471;27;20193;-61
2023/08/06 06:47:06;;;;;;;13.80;13.30;;;;;;;-141.02;100.00;98965.34;5135474;27;20228;-62
2023/08/06 06:49:33;;;;;;;14.57;13.88;;;;;;;-141.02;100.00;98715.56;5135322;27;20229;-66
2023/08/06 06:52:00;;;;;;;14.70;14.00;;;;;;;-141.02;100.00;96468.31;5135595;27;20226;-66
2023/08/06 06:54:27;;;;;;;15.82;14.93;;;;;;;-141.02;100.00;95220.47;5135608;27;20234;-68
2023/08/06 06:56:54;;;;;;;16.17;15.38;;;;;;;-141.02;100.00;93723.63;5135506;27;20197;-61
2023/08/06 06:59:22;;;;;;;14.85;14.15;;;;;;;-141.02;100.00;93973.06;5135400;27;20232;-68
2023/08/06 07:01:49;;;;;;;15.57;14.77;;;;;;;-141.02;100.00;92227.47;5135690;27;20196;-69
2023/08/06 07:04:16;;;;;;;16.27;15.38;;;;;;;-141.02;100.00;89486.16;5135340;27;20246;-64
2023/08/06 07:06:43;;;;;;;15.55;14.75;;;;;;;-141.02;100.00;90233.56;5135589;27;20631;-69
2023/08/06 07:09:10;;;;;;;16.20;15.20;;;;;;;-141.02;100.00;87742.81;5135274;27;20192;-68
2023/08/06 07:11:37;;;;;;;16.30;15.30;;;;;;;-141.02;100.00;86995.94;5135343;27;20262;-70
2023/08/06 07:14:04;;;;;;;16.90;15.80;;;;;;;-141.02;100.00;84756.25;5134850;27;20223;-67
2023/08/06 07:16:33;;;;;;;16.42;15.43;;;;;;;-141.02;100.00;85005.03;5134921;27;20224;-69
2023/08/06 07:19:00;;;;;;;15.52;14.63;;;;;;;-141.02;100.00;88738.88;5135049;27;20193;-67
2023/08/06 07:21:27;;;;;;;17.48;16.27;;;;;;;-141.02;100.00;83263.97;5135171;27;20230;-61
2023/08/06 07:23:54;;;;;;;16.77;15.68;;;;;;;-141.02;100.00;83015.31;5135051;27;20275;-65
2023/08/06 07:26:21;;;;;;;17.25;16.05;;;;;;;-141.02;100.00;82766.69;5134910;27;20220;-70
2023/08/06 07:28:48;;;;;;;17.08;15.88;;;;;;;-141.02;100.00;81772.31;5134942;27;20295;-68
2023/08/06 07:31:15;;;;;;;17.23;16.02;;;;;;;-141.02;100.00;81772.31;5134885;27;20279;-65
2023/08/06 07:33:43;;;;;;;17.33;16.13;;;;;;;-141.02;100.00;82518.06;5134387;27;20283;-65
2023/08/06 07:36:12;;;;;;;17.67;16.38;;;;;;;-141.02;100.00;79287.66;5134749;27;20193;-69
2023/08/06 07:38:39;;;;;;;17.23;16.02;;;;;;;-141.02;100.00;81275.25;5134615;27;20541;-65
2023/08/06 07:41:06;;;;;;;17.75;16.45;;;;;;;-141.02;100.00;79784.44;5134590;27;20291;-67
2023/08/06 07:43:35;;;;;;;18.25;16.85;;;;;;;-141.02;100.00;78046.00;5134527;27;20271;-66
2023/08/06 07:46:02;;;;;;;17.70;16.40;;;;;;;-141.02;100.00;77549.47;5134507;27;20197;-69
2023/08/06 07:48:30;;;;;;;17.88;16.58;;;;;;;-141.02;100.00;77549.47;5133713;27;20279;-67
2023/08/06 07:50:59;;;;;;;18.35;16.95;;;;;;;-141.02;98.95;76308.44;5134385;27;20291;-66
2023/08/06 07:53:29;;;;;;;18.98;17.48;;;;;;;-141.02;96.67;75812.16;5134398;27;20204;-66
2023/08/06 07:55:56;;;;;;;18.45;17.05;;;;;;;-141.02;97.89;76556.59;5134263;27;20644;-68
2023/08/06 07:58:24;;;;;;;19.35;17.75;;;;;;;-141.02;92.40;73083.88;5134329;27;20272;-62
2023/08/06 08:00:52;;;;;;;19.08;17.48;;;;;;;-141.02;94.63;73331.81;5134241;27;20228;-63
2023/08/06 08:03:19;;;;;;;18.95;17.45;;;;;;;-141.02;95.51;74571.75;5134208;27;20279;-68
2023/08/06 08:05:46;;;;;;;18.42;17.02;;;;;;;-141.02;95.05;71348.81;5133834;27;20724;-69
2023/08/06 08:08:14;;;;;;;18.52;17.13;;;;;;;-141.02;95.22;72092.31;5133989;27;20256;-66
2023/08/06 08:10:41;;;;;;;18.35;16.95;;;;;;;-141.02;95.45;72835.97;5134063;27;20231;-69
2023/08/06 08:13:08;;;;;;;18.45;17.05;;;;;;;-141.02;93.88;72340.16;5133596;27;20634;-70
2023/08/06 08:15:36;;;;;;;18.42;17.02;;;;;;;-141.02;95.14;72835.97;5133822;27;20613;-71
2023/08/06 08:18:03;;;;;;;17.95;16.65;;;;;;;-141.02;98.75;72588.06;5134059;27;20562;-70
2023/08/06 08:20:31;;;;;;;17.98;16.67;;;;;;;-141.02;97.14;70853.25;5133894;27;20197;-60
2023/08/06 08:23:00;;;;;;;18.38;16.98;;;;;;;-141.02;92.14;66891.31;5133832;27;20196;-61
2023/08/06 08:25:29;;;;;;;17.63;16.33;;;;;;;-141.02;95.62;68376.50;5133729;27;20196;-66
2023/08/06 08:27:56;;;;;;;17.90;16.60;;;;;;;-141.02;94.15;70357.75;5133445;27;20278;-72
2023/08/06 08:30:24;;;;;;;18.35;16.95;;;;;;;-141.02;90.63;69614.66;5133733;27;20224;-71
2023/08/06 08:32:52;;;;;;;18.27;16.92;;;;;;;-141.02;92.58;70357.75;5133700;27;20220;-72
2023/08/06 08:35:18;;;;;;;17.90;16.60;;;;;;;-141.02;93.97;72340.16;5133618;27;20291;-68
2023/08/06 08:37:46;;;;;;;18.23;16.90;;;;;;;-141.02;88.35;68376.50;5133586;27;20273;-72
2023/08/06 08:40:15;;;;;;;18.15;16.75;;;;;;;-141.02;88.90;69862.34;5133278;27;20288;-67
2023/08/06 08:42:44;;;;;;;18.67;17.27;;;;;;;-141.02;87.69;68128.91;5133777;27;20188;-72
2023/08/06 08:45:14;;;;;;;18.75;17.35;;;;;;;-141.02;86.71;67881.38;5133224;27;20666;-73
2023/08/06 08:47:42;;;;;;;18.30;17.00;;;;;;;-141.02;90.26;69614.66;5133317;27;20219;-69
2023/08/06 08:50:11;;;;;;;18.85;17.45;;;;;;;-141.02;85.94;66891.31;5133407;27;20188;-75
2023/08/06 08:52:39;;;;;;;18.63;17.23;;;;;;;-141.02;88.07;67881.38;5133056;27;20188;-70
2023/08/06 08:55:09;;;;;;;18.80;17.42;;;;;;;-141.02;85.87;67633.81;5133296;27;20195;-67
2023/08/06 08:57:36;;;;;;;19.13;17.73;;;;;;;-141.02;85.18;67386.28;5133355;27;20275;-73
2023/08/06 09:00:05;;;;;;;18.70;17.40;;;;;;;-141.02;85.34;66148.94;5133898;27;20279;-67
2023/08/06 09:02:34;;;;;;;19.02;17.70;;;;;;;-141.02;84.65;66643.84;5133322;27;20192;-73
2023/08/06 09:05:02;;;;;;;18.38;17.17;;;;;;;-141.02;86.78;66891.31;5132926;28;20310;-74
2023/08/06 09:07:36;;;;;;;18.45;17.17;;;;;;;-141.02;85.30;66396.38;5133189;27;20232;-74
2023/08/06 09:10:04;;;;;;;18.60;17.30;;;;;;;-141.02;85.76;66643.84;5132869;28;20184;-69
2023/08/06 09:12:32;;;;;;;18.55;17.25;;;;;;;-141.02;85.91;65654.13;5133671;28;20192;-74
2023/08/06 09:14:59;;;;;;;19.00;17.60;;;;;;;-141.02;85.81;65901.53;5133382;27;20197;-70
2023/08/06 09:17:28;;;;;;;18.65;17.40;;;;;;;-141.02;84.08;66148.94;5132842;28;20223;-71
2023/08/06 09:19:55;;;;;;;18.10;16.90;;;;;;;-141.02;82.62;65159.41;5133068;28;20197;-65
2023/08/06 09:22:22;;;;;;;18.10;16.90;;;;;;;-141.02;83.29;63675.59;5132761;28;20196;-74
2023/08/06 09:24:49;;;;;;;18.17;16.98;;;;;;;-141.02;85.96;65901.53;5132745;28;20288;-70
2023/08/06 09:27:16;;;;;;;18.05;16.95;;;;;;;-141.02;83.66;65406.75;5132954;28;20220;-72
2023/08/06 09:29:44;;;;;;;18.02;16.92;;;;;;;-141.02;83.41;66148.94;5133311;27;20622;-70
2023/08/06 09:32:12;;;;;;;18.67;17.48;;;;;;;-141.02;79.38;65406.75;5132715;27;20196;-68
2023/08/06 09:34:43;;;;;;;18.60;17.40;;;;;;;-141.02;79.71;64912.06;5132906;27;20196;-69
2023/08/06 09:37:11;;;;;;;18.52;17.42;;;;;;;-141.02;79.76;62439.59;5132648;28;20271;-68
2023/08/06 09:39:41;;;;;;;18.48;17.38;;;;;;;-141.02;80.73;63922.84;5132884;28;20196;-69
2023/08/06 09:42:08;;;;;;;18.75;17.55;;;;;;;-141.02;79.00;64170.13;5132866;27;20197;-68
2023/08/06 09:44:35;;;;;;;18.73;17.63;;;;;;;-141.02;77.29;62933.94;5132850;28;20227;-68
2023/08/06 09:47:04;;;;;;;18.65;17.55;;;;;;;-141.02;78.43;63922.84;5132417;28;20220;-69
2023/08/06 09:49:45;;;;;;;18.65;17.55;;;;;;;-141.02;78.21;63428.38;5133372;28;20666;-68
2023/08/06 09:52:13;;;;;;;18.98;17.88;;;;;;;-141.02;72.87;61698.22;5132903;27;20192;-69
2023/08/06 09:54:40;;;;;;;19.48;18.33;;;;;;;-141.02;75.97;63428.38;5133050;28;20197;-67
2023/08/06 09:57:08;;;;;;;19.70;18.50;;;;;;;-141.02;71.44;60957.00;5132774;27;20248;-67
2023/08/06 09:59:36;;;;;;;19.15;18.00;;;;;;;-141.02;72.04;59475.03;5132434;28;20641;-67
2023/08/06 10:02:09;;;;;;;19.48;18.30;;;;;;;-141.02;71.44;56975.69;5132364;27;20287;-64
2023/08/06 10:04:36;;;;;;;19.05;17.95;;;;;;;-141.02;70.59;57284.13;5132648;27;20276;-67
2023/08/06 10:07:05;;;;;;;19.23;18.13;;;;;;;-141.02;68.60;56867.72;5132521;27;20273;-65
2023/08/06 10:09:32;;;;;;;20.20;19.00;;;;;;;-141.02;67.79;54940.53;5132378;28;20283;-68
2023/08/06 10:12:00;;;;;;;20.40;19.20;;;;;;;-141.02;67.88;53466.97;5134244;27;20721;-66
2023/08/06 10:14:33;;;;;;;19.27;18.17;;;;;;;-141.02;69.79;55229.53;5136373;27;20188;-66
2023/08/06 10:17:01;;;;;;;19.02;17.92;;;;;;;-141.02;70.12;53886.81;5136130;27;20236;-63
2023/08/06 10:19:30;;;;;;;19.23;18.13;;;;;;;-141.02;71.36;54516.69;5136158;27;20745;-66
2023/08/06 10:22:27;;;;;;;19.10;18.10;;;;;;;-141.02;72.03;54270.13;5136174;27;20200;-67
2023/08/06 10:24:55;;;;;;;19.20;18.10;;;;;;;-141.02;70.54;54961.72;5089250;27;20192;-66
2023/08/06 10:27:24;;;;;;;19.13;17.92;;;;;;;-141.02;72.53;55597.59;5135898;27;20259;-65
2023/08/06 10:29:51;;;;;;;18.77;17.77;;;;;;;-141.02;71.82;55740.19;5135767;27;20279;-67
2023/08/06 10:32:19;;;;;;;18.88;17.77;;;;;;;-141.02;71.81;60215.94;5136008;27;20560;-66
2023/08/06 10:34:57;;;;;;;19.83;18.63;;;;;;;-141.02;68.42;58360.13;5135937;27;20200;-66
2023/08/06 10:37:25;;;;;;;19.83;18.73;;;;;;;-141.02;65.80;58163.41;5135599;27;20669;-65
2023/08/06 10:39:53;;;;;;;20.15;18.95;;;;;;;-141.02;64.21;55183.28;5135537;27;20761;-66
2023/08/06 10:42:23;;;;;;;19.90;18.80;;;;;;;-141.02;68.05;53542.06;5135498;27;20223;-65
2023/08/06 10:45:12;;;;;;;19.88;18.77;;;;;;;-141.02;68.24;52906.59;5135757;27;20320;-68
2023/08/06 10:47:39;;;;;;;19.65;18.55;;;;;;;-141.02;69.12;53364.91;5135520;27;20251;-66
2023/08/06 10:50:08;;;;;;;19.75;18.65;;;;;;;-141.02;68.53;53438.09;5135687;27;20204;-64
2023/08/06 10:52:36;;;;;;;19.90;18.80;;;;;;;-141.02;68.22;53160.78;5135602;27;20277;-66
2023/08/06 10:55:04;;;;;;;20.20;19.00;;;;;;;-141.02;67.38;52044.09;5135471;27;20239;-66
2023/08/06 10:57:31;;;;;;;19.75;18.65;;;;;;;-141.02;67.48;51199.13;5135559;27;20280;-67
2023/08/06 10:59:58;;;;;;;19.83;18.73;;;;;;;-141.02;67.63;50693.03;5135482;27;20277;-67
2023/08/06 11:02:25;;;;;;;19.98;18.88;;;;;;;-141.02;67.81;50904.69;5135517;27;20196;-66
2023/08/06 11:04:52;;;;;;;19.95;18.85;;;;;;;-141.02;68.09;51893.94;5135417;27;20279;-62
2023/08/06 11:07:19;;;;;;;19.65;18.55;;;;;;;-141.02;67.50;52240.47;5134912;27;20224;-65
2023/08/06 11:09:52;;;;;;;19.58;18.58;;;;;;;-141.02;67.87;51154.88;5135365;27;20275;-67
2023/08/06 11:12:19;;;;;;;19.85;18.75;;;;;;;-141.02;66.93;50023.47;5135236;27;20272;-66
2023/08/06 11:14:51;;;;;;;19.98;18.88;;;;;;;-141.02;65.55;49754.13;5135216;27;20261;-66
2023/08/06 11:17:18;;;;;;;19.80;18.80;;;;;;;-141.02;65.08;49415.56;5134644;27;20274;-66
2023/08/06 11:19:45;;;;;;;20.27;19.27;;;;;;;-141.02;65.49;50138.88;5134776;27;20677;-67
2023/08/06 11:22:13;;;;;;;19.95;18.95;;;;;;;-141.02;64.82;52148.06;5135024;27;20283;-66
2023/08/06 11:24:40;;;;;;;20.67;19.60;;;;;;;-141.02;62.11;52226.97;5135003;27;20231;-66
2023/08/06 11:27:14;;;;;;;19.73;18.67;;;;;;;-141.02;60.44;52506.13;5134523;27;20636;-66
2023/08/06 11:29:41;;;;;;;20.25;19.25;;;;;;;-141.02;59.03;53257.06;5134871;27;20189;-66
2023/08/06 11:32:09;;;;;;;20.05;19.02;;;;;;;-141.02;57.20;49480.97;5134900;27;20279;-69
2023/08/06 11:34:36;;;;;;;20.10;19.10;;;;;;;-141.02;62.16;51347.31;5134785;27;20192;-67
2023/08/06 11:37:05;;;;;;;19.83;18.83;;;;;;;-141.02;59.89;50414.03;5134443;27;20195;-66
2023/08/06 11:39:33;;;;;;;19.90;18.90;;;;;;;-141.02;59.23;50106.19;5134302;27;20193;-67
2023/08/06 11:42:02;;;;;;;18.88;17.92;;;;;;;-141.02;59.72;50525.63;5134865;27;20192;-66
2023/08/06 11:44:33;;;;;;;19.70;18.70;;;;;;;-141.02;60.49;50947.03;5134165;27;20207;-66
2023/08/06 11:47:02;;;;;;;19.85;18.85;;;;;;;-141.02;59.83;51058.66;5134790;27;20185;-67
2023/08/06 11:49:40;;;;;;;20.02;19.02;;;;;;;-141.02;61.45;51637.94;5134045;27;20655;-70
2023/08/06 11:52:15;;;;;;;21.08;20.08;;;;;;;-141.02;59.42;51199.13;5134153;27;20196;-67
2023/08/06 11:54:43;;;;;;;20.20;19.20;;;;;;;-141.02;59.29;51743.81;5134464;27;20196;-67